Time;durP1;ratioP1;P1;durP2;ratioP2;P2;SDS_P1;SDS_P2;PMS_P1;PMS_P2;Temp;Humidity;BMP_temperature;BMP_pressure;BME280_temperature;BME280_humidity;BME280_pressure;Samples;Min_cycle;Max_cycle;Signal;HPM_P1;HPM_P2
2023/04/10 00:00:09;;;;;;;40.83;26.08;;;;;;;-146.25;87.33;52234.38;2123568;27;20028;-76
2023/04/10 00:01:11;;;;;;;42.17;25.35;;;;;;;-146.25;87.24;52295.19;2131079;27;32442;-76
2023/04/10 00:02:13;;;;;;;40.45;25.15;;;;;;;-146.25;87.62;52197.88;2131468;27;36947;-77
2023/04/10 00:03:16;;;;;;;36.25;24.80;;;;;;;-146.25;87.31;52272.91;2130949;27;33828;-77
2023/04/10 00:04:20;;;;;;;39.60;26.65;;;;;;;-146.25;87.26;52270.88;2134414;27;20059;-76
2023/04/10 00:05:23;;;;;;;40.55;25.33;;;;;;;-146.25;87.30;52244.50;2131038;27;34200;-75
2023/04/10 00:06:25;;;;;;;40.97;26.38;;;;;;;-146.25;87.82;52242.50;2121559;27;30536;-76
2023/04/10 00:07:26;;;;;;;38.55;26.27;;;;;;;-146.25;87.35;52218.16;2123059;27;20124;-76
2023/04/10 00:08:28;;;;;;;39.20;25.70;;;;;;;-146.25;88.06;52226.25;2131405;27;33256;-76
2023/04/10 00:09:30;;;;;;;41.10;27.10;;;;;;;-146.25;88.38;52232.34;2131179;27;32502;-75
2023/04/10 00:10:32;;;;;;;40.20;25.98;;;;;;;-146.25;88.33;52236.41;2131224;27;33714;-77
2023/04/10 00:11:34;;;;;;;40.33;26.20;;;;;;;-146.25;87.66;52289.13;2131350;27;33061;-76
2023/04/10 00:12:36;;;;;;;40.33;26.02;;;;;;;-146.25;87.74;52260.72;2121823;27;36708;-76
2023/04/10 00:13:38;;;;;;;38.90;25.55;;;;;;;-146.25;87.65;52230.31;2113908;27;34749;-77
2023/04/10 00:14:40;;;;;;;41.75;26.15;;;;;;;-146.25;87.58;52266.81;2122198;27;33202;-76
2023/04/10 00:15:42;;;;;;;41.33;26.25;;;;;;;-146.25;87.52;52234.38;2131373;27;34614;-76
2023/04/10 00:16:44;;;;;;;40.25;25.95;;;;;;;-146.25;88.42;52226.25;2131375;27;33641;-76
2023/04/10 00:17:46;;;;;;;41.90;26.92;;;;;;;-146.25;88.55;52250.59;2131227;27;35300;-76
2023/04/10 00:18:47;;;;;;;41.47;25.65;;;;;;;-146.25;88.65;52254.66;2131151;27;34536;-77
2023/04/10 00:19:49;;;;;;;39.08;25.45;;;;;;;-146.25;88.40;52212.06;2131006;27;33369;-76
2023/04/10 00:20:51;;;;;;;42.55;26.85;;;;;;;-146.25;88.30;52274.94;2130729;27;37308;-76
2023/04/10 00:21:55;;;;;;;42.90;27.75;;;;;;;-146.25;89.07;52236.41;2131727;27;20051;-76
2023/04/10 00:22:57;;;;;;;39.13;26.33;;;;;;;-146.25;88.28;52236.41;2131197;27;37268;-77
2023/04/10 00:23:59;;;;;;;40.55;26.35;;;;;;;-146.25;88.73;52234.38;2131123;27;34682;-76
2023/04/10 00:25:01;;;;;;;41.45;27.10;;;;;;;-146.25;89.15;52266.81;2130528;27;34593;-76
2023/04/10 00:26:03;;;;;;;40.75;25.90;;;;;;;-146.25;88.55;52276.97;2122052;27;32718;-75
2023/04/10 00:27:07;;;;;;;39.55;25.33;;;;;;;-146.25;88.38;52226.25;2122369;27;32589;-77
2023/04/10 00:28:09;;;;;;;39.83;25.13;;;;;;;-146.25;88.01;52238.44;2131081;27;27496;-76
2023/04/10 00:29:10;;;;;;;39.22;25.98;;;;;;;-146.25;89.48;52258.72;2131085;27;31165;-76
2023/04/10 00:30:12;;;;;;;38.30;25.20;;;;;;;-146.25;89.12;52262.75;2131438;27;29144;-76
2023/04/10 00:31:14;;;;;;;41.42;26.92;;;;;;;-146.25;89.28;52262.75;2122218;27;22419;-77
2023/04/10 00:32:16;;;;;;;40.83;27.08;;;;;;;-146.25;89.12;52224.25;2122534;27;20158;-76
2023/04/10 00:33:18;;;;;;;38.55;25.65;;;;;;;-146.25;88.68;52272.91;2122080;27;28066;-76
2023/04/10 00:34:20;;;;;;;40.15;25.67;;;;;;;-146.25;89.61;52268.84;2131236;27;27170;-77
2023/04/10 00:35:21;;;;;;;39.10;25.23;;;;;;;-146.25;88.76;52258.72;2131419;27;27938;-77
2023/04/10 00:36:23;;;;;;;41.40;26.02;;;;;;;-146.25;88.68;52218.16;2140081;27;25397;-76
2023/04/10 00:37:26;;;;;;;39.38;25.67;;;;;;;-146.25;88.63;52222.22;2140370;27;20137;-76
2023/04/10 00:38:28;;;;;;;39.53;25.75;;;;;;;-146.25;89.13;52206.00;2130559;27;27805;-76
2023/04/10 00:39:32;;;;;;;42.47;26.05;;;;;;;-146.25;88.20;52224.25;2130685;27;28020;-76
2023/04/10 00:40:33;;;;;;;42.22;26.23;;;;;;;-146.25;88.94;52230.31;2140342;27;20038;-77
2023/04/10 00:41:35;;;;;;;37.33;24.73;;;;;;;-146.25;88.26;52270.88;2140147;27;21083;-76
2023/04/10 00:42:37;;;;;;;40.85;25.50;;;;;;;-146.25;88.50;52234.38;2139899;27;24355;-76
2023/04/10 00:43:40;;;;;;;41.47;24.92;;;;;;;-146.25;88.82;52264.78;2140137;27;20042;-76
2023/04/10 00:44:42;;;;;;;40.22;25.42;;;;;;;-146.25;88.39;52264.78;2139750;27;32888;-76
2023/04/10 00:45:44;;;;;;;41.40;25.38;;;;;;;-146.25;88.79;52246.53;2140342;27;20840;-76
2023/04/10 00:46:46;;;;;;;39.60;25.48;;;;;;;-146.25;88.86;52226.25;2130663;27;20077;-77
2023/04/10 00:47:50;;;;;;;44.47;25.25;;;;;;;-146.25;88.07;52289.13;2131131;27;20039;-76
2023/04/10 00:48:55;;;;;;;39.33;25.30;;;;;;;-146.25;88.68;52270.88;2140028;27;20041;-76
2023/04/10 00:49:59;;;;;;;38.58;24.95;;;;;;;-146.25;87.71;52226.25;2131058;27;20050;-76
2023/04/10 00:51:01;;;;;;;37.47;23.70;;;;;;;-146.25;88.53;52246.53;2122762;27;20074;-76
2023/04/10 00:52:03;;;;;;;39.15;24.65;;;;;;;-146.25;88.12;52250.59;2131031;27;20977;-76
2023/04/10 00:53:04;;;;;;;40.90;24.95;;;;;;;-146.25;88.01;52256.69;2130111;27;29524;-77
2023/04/10 00:54:09;;;;;;;36.33;23.77;;;;;;;-146.25;87.68;52230.31;2130971;27;22734;-76
2023/04/10 00:55:11;;;;;;;39.22;24.13;;;;;;;-146.25;87.66;52254.66;2139356;27;22386;-76
2023/04/10 00:56:14;;;;;;;36.92;24.50;;;;;;;-146.25;88.13;52242.50;2139955;27;23205;-77
2023/04/10 00:57:16;;;;;;;38.78;25.08;;;;;;;-146.25;87.90;52246.53;2140288;27;20915;-77
2023/04/10 00:58:18;;;;;;;39.05;24.90;;;;;;;-146.25;87.34;52258.72;2140214;27;25232;-76
2023/04/10 00:59:20;;;;;;;38.97;24.83;;;;;;;-146.25;87.34;52268.84;2139856;27;21347;-76
2023/04/10 01:00:22;;;;;;;36.50;23.70;;;;;;;-146.25;87.47;52230.31;2130494;27;36075;-75
2023/04/10 01:01:23;;;;;;;36.50;24.60;;;;;;;-146.25;87.31;52214.09;2122154;27;22949;-77
2023/04/10 01:02:25;;;;;;;37.10;23.63;;;;;;;-146.25;86.89;52246.53;2122646;27;20044;-76
2023/04/10 01:03:27;;;;;;;40.80;24.35;;;;;;;-146.25;86.76;52252.63;2122314;27;29714;-76
2023/04/10 01:04:32;;;;;;;40.90;24.50;;;;;;;-146.25;87.37;52244.50;2122305;27;20138;-77
2023/04/10 01:06:11;;;;;;;42.92;25.00;;;;;;;-146.25;86.94;52222.22;2124075;27;30471;-76
2023/04/10 01:07:31;;;;;;;37.75;24.08;;;;;;;-146.25;86.52;52246.53;2128567;27;29367;-76
2023/04/10 01:08:49;;;;;;;35.92;22.75;;;;;;;-146.25;87.21;52218.16;2131578;27;20042;-76
2023/04/10 01:10:07;;;;;;;37.38;24.25;;;;;;;-146.25;86.85;52254.66;2131877;27;20031;-77
2023/04/10 01:11:26;;;;;;;39.05;23.70;;;;;;;-146.25;86.22;52228.28;2121749;27;34138;-76
2023/04/10 01:13:04;;;;;;;37.33;23.40;;;;;;;-146.25;86.78;52226.25;2108250;28;31764;-76
2023/04/10 01:14:15;;;;;;;35.42;22.50;;;;;;;-146.25;86.50;52218.16;2117809;27;20052;-76
2023/04/10 01:15:21;;;;;;;36.53;23.42;;;;;;;-146.25;86.47;52272.91;2118923;27;22048;-77
2023/04/10 01:16:45;;;;;;;35.33;23.00;;;;;;;-146.25;85.74;52222.22;2114859;27;20138;-76
2023/04/10 01:18:25;;;;;;;35.30;22.67;;;;;;;-146.25;86.16;52228.28;2116542;27;33481;-76
2023/04/10 01:19:59;;;;;;;30.27;18.05;;;;;;;-146.25;85.67;52222.22;2119476;27;20044;-77
2023/04/10 01:21:04;;;;;;;38.60;23.73;;;;;;;-146.25;85.69;52214.09;2131869;27;20043;-76
2023/04/10 01:22:12;;;;;;;39.03;24.63;;;;;;;-146.25;86.04;52262.75;2130491;27;30041;-76
2023/04/10 01:23:39;;;;;;;36.40;23.20;;;;;;;-146.25;85.20;52230.31;2130983;27;30051;-76
2023/04/10 01:25:17;;;;;;;38.53;24.23;;;;;;;-146.25;85.97;52240.47;2131635;27;20170;-76
2023/04/10 01:26:46;;;;;;;37.28;23.85;;;;;;;-146.25;85.26;52256.69;2104073;27;30411;-77
2023/04/10 01:28:43;;;;;;;37.30;23.75;;;;;;;-146.25;85.27;52246.53;2109039;28;24244;-76
2023/04/10 01:29:51;;;;;;;40.80;24.17;;;;;;;-146.25;85.09;52254.66;2121164;27;24434;-76
2023/04/10 01:31:03;;;;;;;39.58;24.30;;;;;;;-146.25;84.99;52246.53;2114807;27;20028;-76
2023/04/10 01:32:12;;;;;;;39.88;24.17;;;;;;;-146.25;85.19;52256.69;2115967;27;23489;-76
2023/04/10 01:33:20;;;;;;;38.58;24.67;;;;;;;-146.25;84.40;52250.59;2114851;27;20087;-77
2023/04/10 01:34:45;;;;;;;38.50;25.00;;;;;;;-146.25;84.79;52260.72;2123167;27;20178;-76
2023/04/10 01:35:53;;;;;;;40.50;26.13;;;;;;;-146.25;85.19;52228.28;2119340;27;20074;-78
2023/04/10 01:37:02;;;;;;;42.47;26.15;;;;;;;-146.25;85.13;52246.53;2125686;27;33536;-76
2023/04/10 01:38:06;;;;;;;42.20;25.17;;;;;;;-146.25;85.19;52230.31;2121496;27;31723;-76
2023/04/10 01:39:09;;;;;;;41.08;26.52;;;;;;;-146.25;85.34;52236.41;2115075;27;21546;-76
2023/04/10 01:40:15;;;;;;;38.40;24.45;;;;;;;-146.25;85.46;52210.03;2131457;27;20912;-75
2023/04/10 01:41:20;;;;;;;40.80;25.20;;;;;;;-146.25;85.85;52236.41;2121717;27;20911;-76
2023/04/10 01:42:23;;;;;;;40.60;25.80;;;;;;;-146.25;85.78;52216.13;2114476;27;20862;-76
2023/04/10 01:43:27;;;;;;;39.42;25.67;;;;;;;-146.25;85.37;52256.69;2121859;27;22085;-75
2023/04/10 01:44:31;;;;;;;41.90;26.25;;;;;;;-146.25;85.46;52212.06;2122824;27;20044;-76
2023/04/10 01:45:37;;;;;;;45.15;27.27;;;;;;;-146.25;85.58;52250.59;2122377;27;31969;-76
2023/04/10 01:46:39;;;;;;;43.22;26.02;;;;;;;-146.25;85.77;52256.69;2113788;27;22612;-76
2023/04/10 01:47:42;;;;;;;41.17;26.67;;;;;;;-146.25;85.40;52250.59;2105235;27;21104;-76
2023/04/10 01:48:46;;;;;;;44.88;26.85;;;;;;;-146.25;85.88;52262.75;2104833;27;29607;-76
2023/04/10 01:49:49;;;;;;;42.47;27.38;;;;;;;-146.25;85.85;52224.25;2114658;27;23392;-75
2023/04/10 01:50:55;;;;;;;42.60;26.67;;;;;;;-146.25;85.87;52268.84;2122552;27;20051;-77
2023/04/10 01:51:59;;;;;;;40.00;25.92;;;;;;;-146.25;86.59;52222.22;2114221;27;23699;-77
2023/04/10 01:53:05;;;;;;;42.90;26.95;;;;;;;-146.25;87.03;52232.34;2107001;27;20045;-76
2023/04/10 01:54:08;;;;;;;38.22;25.75;;;;;;;-146.25;87.06;52201.94;2106746;27;20048;-76
2023/04/10 01:55:10;;;;;;;43.50;28.02;;;;;;;-146.25;86.80;52250.59;2105386;27;23483;-77
2023/04/10 01:56:27;;;;;;;42.80;27.20;;;;;;;-146.25;87.09;52222.22;2109177;27;20068;-76
2023/04/10 01:57:30;;;;;;;46.92;28.50;;;;;;;-146.25;87.50;52195.84;2113239;27;20846;-76
2023/04/10 01:58:34;;;;;;;45.05;28.30;;;;;;;-146.25;88.00;52248.56;2114314;27;20165;-76
2023/04/10 01:59:38;;;;;;;43.95;27.35;;;;;;;-146.25;87.44;52218.16;2121894;27;20047;-76
2023/04/10 02:00:41;;;;;;;44.30;27.77;;;;;;;-146.25;88.10;52228.28;2121071;27;20027;-76
2023/04/10 02:01:45;;;;;;;45.58;27.88;;;;;;;-146.25;88.04;52250.59;2121647;27;20071;-77
2023/04/10 02:02:47;;;;;;;46.95;28.52;;;;;;;-146.25;88.48;52203.97;2112465;27;22654;-76
2023/04/10 02:03:49;;;;;;;43.63;28.17;;;;;;;-146.25;88.50;52226.25;2115996;27;20082;-76
2023/04/10 02:04:51;;;;;;;44.35;28.17;;;;;;;-146.25;88.48;52206.00;2129917;27;31371;-77
2023/04/10 02:06:07;;;;;;;42.15;26.05;;;;;;;-146.25;88.00;52234.38;2131042;27;34883;-76
2023/04/10 02:07:35;;;;;;;44.92;27.55;;;;;;;-146.25;88.42;52226.25;2124285;27;20059;-76
2023/04/10 02:08:55;;;;;;;46.75;28.55;;;;;;;-146.25;88.69;52230.31;2133700;27;28610;-76
2023/04/10 02:10:17;;;;;;;40.67;25.80;;;;;;;-146.25;89.65;52234.38;2121571;27;20154;-76
2023/04/10 02:11:46;;;;;;;40.55;27.13;;;;;;;-146.25;89.52;52236.41;2121190;27;20096;-76
2023/04/10 02:12:52;;;;;;;45.40;27.83;;;;;;;-146.25;89.46;52232.34;2125163;27;29477;-76
2023/04/10 02:14:02;;;;;;;43.60;27.83;;;;;;;-146.25;89.68;52262.75;2121538;27;21000;-76
2023/04/10 02:15:07;;;;;;;44.50;28.52;;;;;;;-146.25;90.41;52262.75;2107901;27;20048;-76
2023/04/10 02:16:20;;;;;;;44.33;28.73;;;;;;;-146.25;89.53;52258.72;2125184;27;20028;-76
2023/04/10 02:17:29;;;;;;;45.08;27.88;;;;;;;-146.25;90.67;52291.16;2121823;27;20148;-76
2023/04/10 02:18:34;;;;;;;41.65;27.10;;;;;;;-146.25;90.09;52234.38;2122288;27;24759;-76
2023/04/10 02:19:39;;;;;;;47.38;28.85;;;;;;;-146.25;90.54;52230.31;2113198;27;20068;-76
2023/04/10 02:20:41;;;;;;;43.55;29.00;;;;;;;-146.25;91.34;52283.03;2113841;27;32309;-76
2023/04/10 02:21:43;;;;;;;47.58;28.33;;;;;;;-146.25;90.95;52230.31;2130991;27;20860;-77
2023/04/10 02:22:46;;;;;;;49.35;30.00;;;;;;;-146.25;91.05;52262.75;2139427;27;20130;-76
2023/04/10 02:23:47;;;;;;;47.30;29.23;;;;;;;-146.25;91.24;52242.50;2120797;27;29406;-76
2023/04/10 02:24:49;;;;;;;47.05;30.02;;;;;;;-146.25;91.20;52242.50;2113159;27;20053;-76
2023/04/10 02:25:51;;;;;;;44.55;28.75;;;;;;;-146.25;91.04;52240.47;2121203;27;26918;-77
2023/04/10 02:26:56;;;;;;;46.63;29.67;;;;;;;-146.25;91.30;52226.25;2122014;27;20082;-76
2023/04/10 02:28:03;;;;;;;49.08;29.33;;;;;;;-146.25;91.36;52264.78;2129863;27;28533;-76
2023/04/10 02:29:06;;;;;;;43.83;28.10;;;;;;;-146.25;91.28;52238.44;2113696;27;20844;-76
2023/04/10 02:30:09;;;;;;;45.80;29.90;;;;;;;-146.25;91.80;52242.50;2106193;27;20048;-76
2023/04/10 02:31:11;;;;;;;47.45;30.10;;;;;;;-146.25;91.99;52238.44;2113573;27;20179;-76
2023/04/10 02:32:13;;;;;;;48.00;29.60;;;;;;;-146.25;92.78;52250.59;2121568;27;26015;-77
2023/04/10 02:33:15;;;;;;;46.92;29.90;;;;;;;-146.25;93.33;52256.69;2121114;27;28606;-76
2023/04/10 02:34:16;;;;;;;49.63;30.90;;;;;;;-146.25;92.64;52224.25;2121625;27;20031;-77
2023/04/10 02:35:18;;;;;;;46.63;30.23;;;;;;;-146.25;93.00;52234.38;2130435;27;20040;-77
2023/04/10 02:36:20;;;;;;;48.67;30.88;;;;;;;-146.25;92.63;52248.56;2130319;27;30416;-76
2023/04/10 02:37:22;;;;;;;49.00;32.00;;;;;;;-146.25;92.51;52244.50;2132173;27;25994;-77
2023/04/10 02:38:26;;;;;;;50.28;31.20;;;;;;;-146.25;92.75;52230.31;2129875;27;20162;-76
2023/04/10 02:39:29;;;;;;;51.85;31.02;;;;;;;-146.25;93.01;52250.59;2121788;27;20050;-77
2023/04/10 02:40:30;;;;;;;50.75;31.08;;;;;;;-146.25;93.37;52232.34;2121444;27;20059;-76
2023/04/10 02:41:45;;;;;;;45.75;28.90;;;;;;;-146.25;93.71;52232.34;2123246;27;21157;-76
2023/04/10 02:42:49;;;;;;;52.28;32.10;;;;;;;-146.25;93.97;52220.19;2121933;27;20040;-77
2023/04/10 02:43:51;;;;;;;51.05;31.85;;;;;;;-146.25;94.70;52250.59;2129777;27;26526;-76
2023/04/10 02:44:59;;;;;;;49.03;31.17;;;;;;;-146.25;94.05;52220.19;2130258;27;20042;-77
2023/04/10 02:46:05;;;;;;;44.80;28.50;;;;;;;-146.25;94.23;52260.72;2122031;27;20032;-76
2023/04/10 02:47:12;;;;;;;52.55;32.63;;;;;;;-146.25;94.00;52218.16;2122210;27;20047;-76
2023/04/10 02:48:18;;;;;;;52.53;31.52;;;;;;;-146.25;94.86;52274.94;2130246;27;20183;-75
2023/04/10 02:49:26;;;;;;;54.20;32.40;;;;;;;-146.25;94.63;52240.47;2129715;27;20043;-76
2023/04/10 02:50:28;;;;;;;52.08;32.67;;;;;;;-146.25;94.89;52232.34;2121486;27;20040;-76
2023/04/10 02:51:35;;;;;;;51.72;33.03;;;;;;;-146.25;94.59;52246.53;2121385;27;20128;-76
2023/04/10 02:52:37;;;;;;;47.63;31.48;;;;;;;-146.25;94.86;52268.84;2122289;27;20150;-75
2023/04/10 02:53:39;;;;;;;51.97;33.17;;;;;;;-146.25;94.81;52220.19;2121354;27;20047;-75
2023/04/10 02:54:41;;;;;;;49.40;31.77;;;;;;;-146.25;94.99;52246.53;2129526;27;20066;-76
2023/04/10 02:55:43;;;;;;;55.75;33.63;;;;;;;-146.25;95.74;52266.81;2129755;27;20043;-76
2023/04/10 02:56:45;;;;;;;53.38;33.03;;;;;;;-146.25;94.84;52264.78;2130163;27;23318;-75
2023/04/10 02:57:47;;;;;;;54.50;33.90;;;;;;;-146.25;95.31;52230.31;2138617;27;27914;-76
2023/04/10 02:58:49;;;;;;;52.38;32.90;;;;;;;-146.25;96.07;52276.97;2121448;27;20032;-76
2023/04/10 02:59:51;;;;;;;53.08;32.45;;;;;;;-146.25;95.96;52218.16;2113551;27;20163;-76
2023/04/10 03:00:56;;;;;;;53.92;34.10;;;;;;;-146.25;95.20;52181.66;2121936;27;20043;-76
2023/04/10 03:02:30;;;;;;;54.70;33.97;;;;;;;-146.25;95.59;52230.31;2117085;27;20197;-77
2023/04/10 03:03:38;;;;;;;56.00;33.65;;;;;;;-146.25;95.74;52262.75;2126348;27;20052;-75
2023/04/10 03:04:40;;;;;;;54.75;33.55;;;;;;;-146.25;95.56;52250.59;2120977;27;20042;-76
2023/04/10 03:05:47;;;;;;;56.25;33.47;;;;;;;-146.25;95.42;52246.53;2130231;27;21091;-75
2023/04/10 03:06:51;;;;;;;57.03;35.25;;;;;;;-146.25;95.63;52246.53;2129968;27;20083;-76
2023/04/10 03:07:53;;;;;;;53.22;32.97;;;;;;;-146.25;95.50;52262.75;2123743;27;20971;-76
2023/04/10 03:08:55;;;;;;;54.13;34.03;;;;;;;-146.25;95.59;52236.41;2121475;27;20032;-75
2023/04/10 03:09:57;;;;;;;50.20;32.95;;;;;;;-146.25;95.65;52234.38;2129696;27;33119;-76
2023/04/10 03:10:58;;;;;;;57.58;33.83;;;;;;;-146.25;95.67;52214.09;2138442;27;24833;-76
2023/04/10 03:12:03;;;;;;;52.33;32.80;;;;;;;-146.25;95.57;52238.44;2138214;27;23964;-76
2023/04/10 03:13:05;;;;;;;51.80;32.88;;;;;;;-146.25;95.56;52254.66;2129859;27;20985;-76
2023/04/10 03:14:08;;;;;;;54.00;32.17;;;;;;;-146.25;95.79;52222.22;2121576;27;20828;-76
2023/04/10 03:15:11;;;;;;;56.20;34.22;;;;;;;-146.25;95.87;52250.59;2122804;27;25026;-76
2023/04/10 03:16:13;;;;;;;55.40;34.53;;;;;;;-146.25;96.10;52254.66;2122793;27;20036;-76
2023/04/10 03:17:16;;;;;;;52.65;33.78;;;;;;;-146.25;95.99;52264.78;2131183;27;20036;-76
2023/04/10 03:18:21;;;;;;;52.78;33.33;;;;;;;-146.25;96.13;52260.72;2123118;27;20089;-76
2023/04/10 03:19:25;;;;;;;54.88;34.20;;;;;;;-146.25;95.53;52254.66;2132185;27;20031;-76
2023/04/10 03:20:27;;;;;;;57.42;34.13;;;;;;;-146.25;95.64;52236.41;2140501;27;20038;-76
2023/04/10 03:21:29;;;;;;;56.75;34.65;;;;;;;-146.25;95.30;52201.94;2130766;27;33030;-76
2023/04/10 03:22:31;;;;;;;52.22;33.25;;;;;;;-146.25;95.56;52258.72;2122094;27;37861;-76
2023/04/10 03:23:34;;;;;;;56.78;34.58;;;;;;;-146.25;95.83;52250.59;2123506;27;20055;-76
2023/04/10 03:24:37;;;;;;;53.95;33.35;;;;;;;-146.25;95.58;52260.72;2131665;27;20073;-77
2023/04/10 03:25:38;;;;;;;53.60;33.90;;;;;;;-146.25;95.95;52240.47;2140570;27;22152;-76
2023/04/10 03:26:41;;;;;;;54.83;33.72;;;;;;;-146.25;95.59;52214.09;2131566;27;20032;-76
2023/04/10 03:27:43;;;;;;;51.90;32.85;;;;;;;-146.25;95.44;52246.53;2131211;27;25631;-76
2023/04/10 03:28:45;;;;;;;57.00;34.50;;;;;;;-146.25;96.12;52258.72;2131450;27;20047;-76
2023/04/10 03:29:46;;;;;;;54.38;33.13;;;;;;;-146.25;95.74;52238.44;2122606;27;20165;-76
2023/04/10 03:30:51;;;;;;;60.42;34.42;;;;;;;-146.25;95.17;52242.50;2131575;27;20040;-76
2023/04/10 03:31:53;;;;;;;56.95;33.67;;;;;;;-146.25;95.29;52246.53;2131327;27;20043;-76
2023/04/10 03:32:55;;;;;;;54.85;33.13;;;;;;;-146.25;95.51;52250.59;2122746;27;20047;-76
2023/04/10 03:33:57;;;;;;;56.95;33.97;;;;;;;-146.25;94.90;52250.59;2122586;27;20079;-76
2023/04/10 03:34:59;;;;;;;56.67;34.08;;;;;;;-146.25;94.51;52242.50;2123392;27;20063;-76
2023/04/10 03:36:03;;;;;;;53.33;32.95;;;;;;;-146.25;95.22;52250.59;2131658;27;20039;-76
2023/04/10 03:37:07;;;;;;;54.95;33.63;;;;;;;-146.25;94.84;52256.69;2131236;27;20851;-76
2023/04/10 03:38:09;;;;;;;55.38;33.22;;;;;;;-146.25;95.41;52240.47;2134060;27;20054;-76
2023/04/10 03:39:10;;;;;;;52.50;33.53;;;;;;;-146.25;95.29;52242.50;2131249;27;23092;-76
2023/04/10 03:40:12;;;;;;;50.35;33.17;;;;;;;-146.25;95.49;52252.63;2122020;27;22778;-76
2023/04/10 03:41:14;;;;;;;54.55;33.80;;;;;;;-146.25;95.39;52256.69;2122737;27;20039;-75
2023/04/10 03:42:16;;;;;;;54.63;33.22;;;;;;;-146.25;94.90;52222.22;2122778;27;20039;-77
2023/04/10 03:43:20;;;;;;;53.42;33.83;;;;;;;-146.25;95.02;52228.28;2122847;27;20035;-76
2023/04/10 03:44:22;;;;;;;62.58;35.40;;;;;;;-146.25;95.56;52268.84;2131694;27;20042;-76
2023/04/10 03:45:25;;;;;;;54.05;33.72;;;;;;;-146.25;95.51;52216.13;2123052;27;20093;-76
2023/04/10 03:46:26;;;;;;;55.15;33.05;;;;;;;-146.25;95.16;52252.63;2113905;27;20044;-76
2023/04/10 03:47:32;;;;;;;55.00;33.70;;;;;;;-146.25;94.89;52224.25;2131421;27;20987;-76
2023/04/10 03:48:37;;;;;;;49.60;32.22;;;;;;;-146.25;94.37;52250.59;2131363;27;20936;-76
2023/04/10 03:49:39;;;;;;;55.25;33.08;;;;;;;-146.25;94.66;52238.44;2122736;27;20116;-76
2023/04/10 03:50:41;;;;;;;54.35;33.47;;;;;;;-146.25;94.49;52246.53;2122858;27;20253;-76
2023/04/10 03:51:43;;;;;;;54.33;34.38;;;;;;;-146.25;94.49;52220.19;2114210;27;20067;-76
2023/04/10 03:52:45;;;;;;;54.13;33.60;;;;;;;-146.25;94.56;52266.81;2122721;27;29936;-76
2023/04/10 03:53:50;;;;;;;50.60;31.90;;;;;;;-146.25;95.10;52256.69;2131480;27;20027;-75
2023/04/10 03:54:53;;;;;;;52.28;33.05;;;;;;;-146.25;94.86;52238.44;2122496;27;20075;-76
2023/04/10 03:56:03;;;;;;;56.65;33.70;;;;;;;-146.25;95.02;52236.41;2123970;27;20032;-76
2023/04/10 03:57:05;;;;;;;54.75;33.25;;;;;;;-146.25;94.23;52266.81;2122949;27;20051;-76
2023/04/10 03:58:09;;;;;;;51.90;32.03;;;;;;;-146.25;94.32;52258.72;2122310;27;20059;-75
2023/04/10 03:59:11;;;;;;;52.72;33.58;;;;;;;-146.25;95.00;52293.19;2131521;27;20031;-77
2023/04/10 04:00:16;;;;;;;53.83;33.45;;;;;;;-146.25;95.10;52208.03;2131114;27;20127;-76
2023/04/10 04:01:21;;;;;;;51.58;33.03;;;;;;;-146.25;94.54;52285.06;2131821;27;20044;-76
2023/04/10 04:02:34;;;;;;;51.28;31.80;;;;;;;-146.25;94.38;52254.66;2122559;27;20116;-77
2023/04/10 04:03:37;;;;;;;50.28;31.63;;;;;;;-146.25;94.60;52258.72;2115886;27;20109;-75
2023/04/10 04:04:58;;;;;;;52.70;32.95;;;;;;;-146.25;94.18;52246.53;2111102;27;20870;-76
2023/04/10 04:06:17;;;;;;;47.35;30.85;;;;;;;-146.25;93.64;52252.63;2122064;27;20039;-76
2023/04/10 04:07:37;;;;;;;51.58;31.85;;;;;;;-146.25;93.58;52232.34;2133426;27;20043;-76
2023/04/10 04:08:49;;;;;;;50.08;31.35;;;;;;;-146.25;94.21;52250.59;2133847;27;20939;-75
2023/04/10 04:09:55;;;;;;;51.35;32.95;;;;;;;-146.25;94.52;52264.78;2123348;27;20051;-75
2023/04/10 04:11:20;;;;;;;48.72;31.33;;;;;;;-146.25;93.95;52222.22;2125512;27;20047;-75
2023/04/10 04:12:32;;;;;;;49.72;30.30;;;;;;;-146.25;94.49;52238.44;2140440;27;20115;-76
2023/04/10 04:13:42;;;;;;;50.97;32.10;;;;;;;-146.25;93.90;52260.72;2131306;27;20043;-75
2023/04/10 04:14:51;;;;;;;51.90;32.65;;;;;;;-146.25;94.43;52283.03;2123542;27;20908;-76
2023/04/10 04:16:25;;;;;;;47.83;29.83;;;;;;;-146.25;93.87;52238.44;2105057;28;20032;-75
2023/04/10 04:17:42;;;;;;;49.85;30.52;;;;;;;-146.25;94.32;52250.59;2129376;27;20955;-76
2023/04/10 04:19:04;;;;;;;51.17;31.05;;;;;;;-146.25;94.23;52283.03;2133952;27;20173;-76
2023/04/10 04:20:12;;;;;;;52.85;31.67;;;;;;;-146.25;95.13;52268.84;2130719;27;20089;-76
2023/04/10 04:21:17;;;;;;;50.60;32.03;;;;;;;-146.25;94.92;52258.72;2131361;27;20161;-77
2023/04/10 04:22:51;;;;;;;50.97;31.55;;;;;;;-146.25;94.11;52220.19;2113204;28;21019;-76
2023/04/10 04:24:12;;;;;;;46.00;29.95;;;;;;;-146.25;94.08;52228.28;2131245;27;20094;-76
2023/04/10 04:25:37;;;;;;;48.45;29.77;;;;;;;-146.25;94.87;52242.50;2125423;27;20039;-75
2023/04/10 04:26:45;;;;;;;48.50;30.90;;;;;;;-146.25;94.75;52278.97;2131443;27;20040;-76
2023/04/10 04:28:02;;;;;;;47.15;30.33;;;;;;;-146.25;94.18;52266.81;2131062;27;20149;-76
2023/04/10 04:29:26;;;;;;;50.50;31.08;;;;;;;-146.25;94.08;52264.78;2093213;28;20045;-76
2023/04/10 04:30:47;;;;;;;46.65;29.05;;;;;;;-146.25;94.60;52230.31;2139855;27;20189;-76
2023/04/10 04:31:53;;;;;;;50.83;30.67;;;;;;;-146.25;93.99;52232.34;2140070;27;20049;-76
2023/04/10 04:33:13;;;;;;;52.10;31.25;;;;;;;-146.25;94.51;52230.31;2140518;27;20051;-75
2023/04/10 04:34:23;;;;;;;46.42;29.05;;;;;;;-146.25;94.38;52270.88;2130692;27;20901;-75
2023/04/10 04:35:43;;;;;;;49.05;29.10;;;;;;;-146.25;94.10;52272.91;2124827;27;20938;-76
2023/04/10 04:37:04;;;;;;;47.40;29.85;;;;;;;-146.25;95.15;52246.53;2134620;27;20047;-76
2023/04/10 04:38:15;;;;;;;44.53;29.42;;;;;;;-146.25;94.82;52250.59;2130954;27;21011;-76
2023/04/10 04:39:30;;;;;;;46.95;29.45;;;;;;;-146.25;94.46;52262.75;2126308;27;20116;-76
2023/04/10 04:40:53;;;;;;;49.95;29.75;;;;;;;-146.25;94.90;52270.88;2090435;28;20066;-76
2023/04/10 04:42:13;;;;;;;44.50;28.50;;;;;;;-146.25;94.72;52246.53;2130751;27;20948;-76
2023/04/10 04:43:34;;;;;;;49.38;29.88;;;;;;;-146.25;94.87;52238.44;2133936;27;20119;-76
2023/04/10 04:45:15;;;;;;;49.30;29.25;;;;;;;-146.25;94.78;52254.66;2096711;28;20055;-75
2023/04/10 04:46:32;;;;;;;48.85;30.10;;;;;;;-146.25;95.23;52240.47;2088034;28;20113;-76
2023/04/10 04:47:52;;;;;;;45.22;28.42;;;;;;;-146.25;95.05;52246.53;2090679;28;20045;-75
2023/04/10 04:49:26;;;;;;;48.50;29.40;;;;;;;-146.25;94.38;52208.03;2087741;28;20046;-77
2023/04/10 04:51:06;;;;;;;46.40;28.33;;;;;;;-146.25;94.65;52266.81;2092828;28;21257;-76
2023/04/10 04:52:16;;;;;;;45.90;28.58;;;;;;;-146.25;94.20;52268.84;2096461;28;20114;-76
2023/04/10 04:53:29;;;;;;;45.25;28.58;;;;;;;-146.25;94.67;52262.75;2096355;28;20463;-76
2023/04/10 04:55:07;;;;;;;44.53;27.98;;;;;;;-146.25;94.20;52250.59;2068242;28;20042;-76
2023/04/10 04:56:27;;;;;;;46.00;28.63;;;;;;;-146.25;94.67;52266.81;2074791;28;20048;-76
2023/04/10 04:57:52;;;;;;;44.92;28.38;;;;;;;-146.25;94.18;52258.72;2129797;27;20887;-76
2023/04/10 04:59:20;;;;;;;45.85;28.60;;;;;;;-146.25;93.66;52228.28;2135587;27;20054;-76
2023/04/10 05:00:33;;;;;;;44.42;27.40;;;;;;;-146.25;92.72;52240.47;2130850;27;20046;-76
2023/04/10 05:01:39;;;;;;;41.03;26.80;;;;;;;-146.25;91.72;52246.53;2122604;27;21001;-76
2023/04/10 05:03:00;;;;;;;43.78;27.90;;;;;;;-146.25;91.13;52258.72;2133017;27;20169;-76
2023/04/10 05:04:07;;;;;;;42.90;26.88;;;;;;;-146.25;90.92;52270.88;2139344;27;20172;-75
2023/04/10 05:05:27;;;;;;;43.13;27.57;;;;;;;-146.25;90.54;52254.66;2139286;27;20884;-76